Semaine O'tomnale - Régionale MD Scaer, foret de Coatloch (29) - G

Date : 31/10/2012
Distance : 2,000 km

Place Nom Licence Catégorie Club Temps min/km CN à J-60 Points Différence Nouveau CN
1 DEVILLE Nelly 2401 D60 5402LO 0:30:41 15'20 4387 4491 +104 4417
2 SIMONET Jean 930 H70 7707IF 0:31:26 15'43 4379 4384 +5 4396
3 CROCHET Gerard 2817 H70 1705PC 0:32:29 16'14 4119 4242 +123 4193
4 DUBROCA Monique 633 D65 3308AQ 0:34:06 17'03 4352 4041 -311 4326
5 LARMINACH Andre 646 H70 3308AQ 0:34:23 17'11 3904 4008 +104 4025
6 EUZEN J-Paul 16403 H70 6911RA 0:34:37 17'18 2652 3981 +1329 3346
7 CHALOPIN Catherine 3674 D60 2105BO 0:35:28 17'44 3783 3886 +103 3765
8 DIEUDONNE Madeleine 1380 D65 7808IF 0:37:20 18'40 3850 3691 -159 3953
9 COLLETER J-Claude 1264 H70 1705PC 0:37:30 18'45 2545 3675 +1130 3235
10 ANTOINE Regis 1276 H70 7108BO 0:39:04 19'32 3643 3528 -115 3609
11 BLASCO Serge 396 H70 2406AQ 0:39:27 19'43 3642 3493 -149 3751
12 LABEUR Roselyne 905 D60 7707IF 0:40:14 20'07 3836 3425 -411 3764
13 ETIENNE Bernadette 15324 D60 8807LO 0:42:47 21'23 0 3221 1989
14 GARROS Jocelyne 1298 D60 6408AQ 0:43:00 21'30 2890 3205 +315 2747
15 MOULIERE M-Bernadette 2888 D65 0207PI 0:43:18 21'39 3476 3183 -293 3447
16 RICHARD Nicole 14245 D60 0207PI 0:44:01 22'00 3374 3131 -243 3069
17 BRUNEL Marie-Jo 8761 D60 8903BO 0:44:30 22'15 3473 3097 -376 3345
18 BLASCO Nicole 395 D65 2406AQ 0:45:33 22'46 3705 3025 -680 3699
19 PROST Daniel 2181 H70 9307IF 0:46:37 23'18 2995 2956 -39 3021
20 OUDIN M-Reine 7574 D60 6804AL 0:46:43 23'21 3312 2950 -362 3316
21 COUPEY Guy 5118 H70 2704NM 0:48:33 24'16 2494 2839 +345 2642
22 VOGT Christiane 2557 D65 6709AL 0:50:32 25'16 3661 2727 -934 3625
23 DIRRINGER M-Claude 15630 D60 4902PL 0:51:11 25'35 2615 2692 +77 2777
24 BERGER M-Jose 7182 D60 5703LO 0:51:43 25'51 3892 2665 -1227 3588
25 LECOYER Annick 2885 D60 0207PI 0:52:08 26'04 2890 2643 -247 2890
26 POGU Paulette 4671 D60 5402LO 0:57:18 28'39 3186 2405 -781 3001
27 KIEFFER Mireille 2680 D65 2101BO 0:57:20 28'40 2636 2404 -232 2534
28 BASTIEN-FATH Nicole 8954 D65 5402LO 0:57:24 28'42 2352 2401 +49 2388
29 LAUNEY Noella 11368 D70 7203PL 0:58:52 29'26 2018 2341 +323 2101
30 MONTANARI Colette 2533 D60 5703LO 0:59:11 29'35 3527 2329 -1198 3247
31 LARMINACH Genevieve 647 D65 3308AQ 1:01:03 30'31 2418 2257 -161 2406
32 NATALI Annie 1106 D65 8105MP 1:04:57 32'28 3070 2122 -948 2518
33 RIOFFRAY Jacqueline 25 D60 4204RA 1:06:48 33'24 1603 2063 +460 1743
34 POUPIER Claudine 13991 D60 7203PL 1:08:31 34'15 2604 2011 -593 2687
35 PROST Gisele 2182 D60 9307IF 1:10:56 35'28 2769 1943 -826 2681
36 ALLANCON Claudine 14632 D60 2906BR 1:14:46 37'23 1980 1843 -137 1948
37 LEBIAN-DEROME Annie 8121 D65 9502IF 1:15:11 37'35 2319 1833 -486 2305
38 LUDEWIG-JAMES Carol 15894 D70 5907NO 1:36:23 48'11 2136 1430 -706 2130
DRAULT J-Raymond 4234 H70 8702LI pm None 2797 0 2816
COULON Annick 10073 D60 0615AZ pm None 3621 0 3165